createdAt,value
2018-05-27T00:01:47.787Z,20.60
2018-05-27T00:04:16.088Z,20.60
2018-05-27T00:06:43.641Z,20.50
2018-05-27T00:09:11.931Z,20.50
2018-05-27T00:11:40.268Z,20.50
2018-05-27T00:14:07.755Z,20.50
2018-05-27T00:16:35.336Z,20.50
2018-05-27T00:19:02.831Z,20.50
2018-05-27T00:21:31.122Z,20.40
2018-05-27T00:23:59.586Z,20.40
2018-05-27T00:26:27.145Z,20.30
2018-05-27T00:28:54.637Z,20.30
2018-05-27T00:31:22.214Z,20.20
2018-05-27T00:33:49.921Z,20.20
2018-05-27T00:36:17.446Z,20.20
2018-05-27T00:38:45.042Z,20.10
2018-05-27T00:41:13.412Z,20.10
2018-05-27T00:43:40.924Z,20.10
2018-05-27T00:46:08.565Z,20.10
2018-05-27T00:48:36.058Z,20.10
2018-05-27T00:51:04.335Z,20.10
2018-05-27T00:53:44.712Z,20.00
2018-05-27T00:56:13.063Z,20.00
2018-05-27T00:58:40.592Z,20.00
2018-05-27T01:01:08.108Z,20.00
2018-05-27T01:03:35.709Z,19.90
2018-05-27T01:06:03.968Z,19.90
2018-05-27T01:08:31.585Z,19.80
2018-05-27T01:10:59.852Z,19.80
2018-05-27T01:13:28.129Z,19.80
2018-05-27T01:15:55.608Z,19.80
2018-05-27T01:18:23.299Z,19.80
2018-05-27T01:20:51.660Z,19.70
2018-05-27T01:23:19.211Z,19.70
2018-05-27T01:25:46.712Z,19.60
2018-05-27T01:28:14.219Z,19.60
2018-05-27T01:30:42.678Z,19.60
2018-05-27T01:33:10.933Z,19.50
2018-05-27T01:35:38.432Z,19.40
2018-05-27T01:38:06.008Z,19.40
2018-05-27T01:40:33.599Z,19.40
2018-05-27T01:43:01.982Z,19.30
2018-05-27T01:45:30.364Z,19.30
2018-05-27T01:47:58.646Z,19.30
2018-05-27T01:50:27.005Z,19.20
2018-05-27T01:52:54.552Z,19.20
2018-05-27T01:55:22.190Z,19.20
2018-05-27T01:57:50.468Z,19.20
2018-05-27T02:00:18.010Z,19.20
2018-05-27T02:02:45.491Z,19.20
2018-05-27T02:05:13.154Z,19.20
2018-05-27T02:07:40.665Z,19.10
2018-05-27T02:10:08.948Z,19.10
2018-05-27T02:12:36.461Z,19.10
2018-05-27T02:15:04.118Z,19.10
2018-05-27T02:17:31.720Z,19.00
2018-05-27T02:19:59.308Z,18.90
2018-05-27T02:22:26.865Z,18.90
2018-05-27T02:24:54.384Z,18.90
2018-05-27T02:27:22.761Z,18.80
2018-05-27T02:29:50.293Z,18.80
2018-05-27T02:32:17.803Z,18.80
2018-05-27T02:34:46.098Z,18.80
2018-05-27T02:37:13.615Z,18.70
2018-05-27T02:39:41.102Z,18.70
2018-05-27T02:42:08.718Z,18.70
2018-05-27T02:44:37.008Z,18.70
2018-05-27T02:47:05.496Z,18.70
2018-05-27T02:49:33.795Z,18.70
2018-05-27T02:52:01.568Z,18.60
2018-05-27T02:54:30.160Z,18.50
2018-05-27T02:56:58.412Z,18.50
2018-05-27T02:59:26.022Z,18.50
2018-05-27T03:01:54.311Z,18.50
2018-05-27T03:04:22.586Z,18.50
2018-05-27T03:06:51.076Z,18.50
2018-05-27T03:09:18.619Z,18.50
2018-05-27T03:11:46.148Z,18.50
2018-05-27T03:14:13.657Z,18.50
2018-05-27T03:16:41.168Z,18.50
2018-05-27T03:19:09.460Z,18.40
2018-05-27T03:21:38.704Z,18.40
2018-05-27T03:24:06.246Z,18.40
2018-05-27T03:26:34.543Z,18.40
2018-05-27T03:29:02.075Z,18.40
2018-05-27T03:31:29.570Z,18.40
2018-05-27T03:33:57.157Z,18.40
2018-05-27T03:36:25.418Z,18.30
2018-05-27T03:38:52.988Z,18.30
2018-05-27T03:41:20.492Z,18.30
2018-05-27T03:43:48.006Z,18.30
2018-05-27T03:46:15.580Z,18.20
2018-05-27T03:48:43.094Z,18.20
2018-05-27T03:51:11.357Z,18.10
2018-05-27T03:53:38.834Z,18.10
2018-05-27T03:56:07.227Z,18.10
2018-05-27T03:58:35.629Z,18.10
2018-05-27T04:01:03.161Z,18.10
2018-05-27T04:03:30.663Z,18.10
2018-05-27T04:06:11.035Z,18.20
2018-05-27T04:08:39.285Z,18.20
2018-05-27T04:11:06.913Z,18.20
2018-05-27T04:13:34.419Z,18.20
2018-05-27T04:16:01.911Z,18.20
2018-05-27T04:18:29.735Z,18.20
2018-05-27T04:20:57.280Z,18.20
2018-05-27T04:23:24.791Z,18.20
2018-05-27T04:25:52.413Z,18.20
2018-05-27T04:28:20.047Z,18.20
2018-05-27T04:30:47.595Z,18.20
2018-05-27T04:33:15.368Z,18.20
2018-05-27T04:35:42.892Z,18.20
2018-05-27T04:38:10.378Z,18.30
2018-05-27T04:40:37.995Z,18.30
2018-05-27T04:43:05.661Z,18.30
2018-05-27T04:45:33.268Z,18.30
2018-05-27T04:48:00.915Z,18.30
2018-05-27T04:50:28.415Z,18.30
2018-05-27T04:52:56.055Z,18.40
2018-05-27T04:55:23.572Z,18.40
2018-05-27T04:57:51.175Z,18.40
2018-05-27T05:00:19.467Z,18.50
2018-05-27T05:02:47.740Z,18.50
2018-05-27T05:05:15.433Z,18.40
2018-05-27T05:07:43.693Z,18.50
2018-05-27T05:10:11.279Z,18.50
2018-05-27T05:12:39.567Z,18.60
2018-05-27T05:15:07.859Z,18.60
2018-05-27T05:17:36.301Z,18.60
2018-05-27T05:20:03.980Z,18.60
2018-05-27T05:22:31.504Z,18.70
2018-05-27T05:24:59.788Z,18.70
2018-05-27T05:27:28.081Z,18.80
2018-05-27T05:29:56.355Z,18.90
2018-05-27T05:32:24.642Z,18.90
2018-05-27T05:34:52.308Z,18.90
2018-05-27T05:37:19.881Z,19.00
2018-05-27T05:39:47.389Z,19.00
2018-05-27T05:42:14.950Z,19.10
2018-05-27T05:44:43.341Z,19.20
2018-05-27T05:47:11.650Z,19.30
2018-05-27T05:49:39.367Z,19.20
2018-05-27T05:52:06.991Z,19.30
2018-05-27T05:54:34.765Z,19.40
2018-05-27T05:57:02.325Z,19.40
2018-05-27T05:59:30.614Z,19.60
2018-05-27T06:01:58.875Z,19.60
2018-05-27T06:04:26.455Z,19.60
2018-05-27T06:06:54.712Z,19.60
2018-05-27T06:09:22.283Z,19.60
2018-05-27T06:11:49.771Z,19.60
2018-05-27T06:14:17.311Z,19.60
2018-05-27T06:16:44.831Z,19.60
2018-05-27T06:19:13.210Z,19.70
2018-05-27T06:21:40.802Z,19.60
2018-05-27T06:24:09.055Z,19.70
2018-05-27T06:26:36.676Z,19.70
2018-05-27T06:29:04.199Z,19.80
2018-05-27T06:31:31.725Z,19.80
2018-05-27T06:33:59.284Z,19.90
2018-05-27T06:36:28.176Z,20.00
2018-05-27T06:38:56.457Z,20.00
2018-05-27T06:41:24.779Z,20.10
2018-05-27T06:43:52.338Z,20.10
2018-05-27T06:46:19.880Z,20.20
2018-05-27T06:48:47.412Z,20.20
2018-05-27T06:51:14.944Z,20.30
2018-05-27T06:53:42.438Z,20.30
2018-05-27T06:56:10.146Z,20.40
2018-05-27T06:58:37.710Z,20.40
2018-05-27T07:01:05.442Z,20.40
2018-05-27T07:03:33.928Z,20.50
2018-05-27T07:06:01.713Z,20.50
2018-05-27T07:08:29.230Z,20.50
2018-05-27T07:10:56.850Z,20.50
2018-05-27T07:13:24.510Z,20.60
2018-05-27T07:15:52.268Z,20.60
2018-05-27T07:18:19.871Z,20.70
2018-05-27T07:20:48.149Z,20.80
2018-05-27T07:23:16.476Z,20.90
2018-05-27T07:25:44.189Z,20.80
2018-05-27T07:28:11.833Z,20.90
2018-05-27T07:30:39.369Z,21.00
2018-05-27T07:33:07.715Z,21.40
2018-05-27T07:35:35.345Z,21.40
2018-05-27T07:38:02.934Z,21.80
2018-05-27T07:40:30.592Z,22.00
2018-05-27T07:42:58.176Z,22.10
2018-05-27T07:45:25.732Z,22.20
2018-05-27T07:47:53.340Z,22.20
2018-05-27T07:50:20.874Z,22.30
2018-05-27T07:52:48.396Z,22.40
2018-05-27T07:55:15.893Z,22.50
2018-05-27T07:57:44.207Z,22.60
2018-05-27T08:00:11.790Z,22.60
2018-05-27T08:02:39.316Z,22.60
2018-05-27T08:05:07.589Z,22.60
2018-05-27T08:07:35.205Z,22.60
2018-05-27T08:10:02.714Z,22.60
2018-05-27T08:12:30.353Z,22.60
2018-05-27T08:14:58.115Z,22.70
2018-05-27T08:17:26.403Z,22.80
2018-05-27T08:19:54.761Z,22.90
2018-05-27T08:22:22.333Z,22.90
2018-05-27T08:24:49.876Z,23.00
2018-05-27T08:27:17.452Z,23.10
2018-05-27T08:29:44.987Z,23.20
2018-05-27T08:32:13.300Z,23.30
2018-05-27T08:34:40.811Z,23.30
2018-05-27T08:37:08.365Z,23.30
2018-05-27T08:39:35.924Z,23.40
2018-05-27T08:42:03.439Z,23.40
2018-05-27T08:44:31.761Z,23.60
2018-05-27T08:46:59.283Z,23.60
2018-05-27T08:49:26.769Z,23.70
2018-05-27T08:51:55.160Z,23.80
2018-05-27T08:54:22.664Z,23.80
2018-05-27T08:56:50.182Z,23.80
2018-05-27T08:59:17.784Z,23.90
2018-05-27T09:01:46.285Z,24.10
2018-05-27T09:04:14.677Z,24.20
2018-05-27T09:06:42.343Z,24.10
2018-05-27T09:09:10.638Z,24.40
2018-05-27T09:11:38.888Z,24.50
2018-05-27T09:14:06.379Z,24.40
2018-05-27T09:16:33.981Z,24.50
2018-05-27T09:19:01.503Z,24.60
2018-05-27T09:21:29.039Z,24.60
2018-05-27T09:23:56.553Z,24.70
2018-05-27T09:26:24.805Z,24.90
2018-05-27T09:28:54.796Z,24.90
2018-05-27T09:31:22.528Z,25.10
2018-05-27T09:33:50.120Z,25.20
2018-05-27T09:36:17.641Z,25.40
2018-05-27T09:38:45.161Z,25.50
2018-05-27T09:41:12.728Z,25.70
2018-05-27T09:43:40.271Z,25.80
2018-05-27T09:46:07.793Z,26.00
2018-05-27T09:48:36.065Z,26.30
2018-05-27T09:51:04.406Z,26.50
2018-05-27T09:53:33.849Z,26.40
2018-05-27T09:56:02.335Z,26.80
2018-05-27T09:58:29.848Z,26.80
2018-05-27T10:00:58.158Z,27.20
2018-05-27T10:03:25.788Z,27.10
2018-05-27T10:05:53.300Z,27.50
2018-05-27T10:08:20.804Z,28.00
2018-05-27T10:10:48.569Z,28.30
2018-05-27T10:13:16.183Z,28.50
2018-05-27T10:15:43.664Z,28.80
2018-05-27T10:18:11.236Z,29.30
2018-05-27T10:20:38.811Z,29.60
2018-05-27T10:23:06.357Z,30.00
2018-05-27T10:25:33.864Z,30.30
2018-05-27T10:28:02.244Z,30.30
2018-05-27T10:30:30.585Z,30.20
2018-05-27T10:32:58.228Z,30.10
2018-05-27T10:35:25.742Z,30.00
2018-05-27T10:37:53.276Z,30.10
2018-05-27T10:40:20.818Z,30.30
2018-05-27T10:42:49.094Z,30.90
2018-05-27T10:45:16.598Z,30.90
2018-05-27T10:47:44.125Z,31.30
2018-05-27T10:50:13.136Z,31.70
2018-05-27T10:52:40.655Z,31.70
2018-05-27T10:55:08.170Z,31.90
2018-05-27T10:57:35.699Z,32.30
2018-05-27T11:00:03.191Z,32.60
2018-05-27T11:02:30.691Z,32.90
2018-05-27T11:04:59.363Z,33.30
2018-05-27T11:07:26.867Z,33.20
2018-05-27T11:09:54.456Z,33.60
2018-05-27T11:12:22.995Z,34.00
2018-05-27T11:14:50.533Z,34.00
2018-05-27T11:17:18.065Z,33.90
2018-05-27T11:19:45.881Z,34.20
2018-05-27T11:22:13.437Z,34.60
2018-05-27T11:24:41.695Z,35.10
2018-05-27T11:27:09.226Z,35.00
2018-05-27T11:29:36.790Z,35.30
2018-05-27T11:32:04.371Z,35.30
2018-05-27T11:34:32.013Z,35.30
2018-05-27T11:37:00.356Z,35.70
2018-05-27T11:39:28.576Z,35.90
2018-05-27T11:41:56.127Z,35.90
2018-05-27T11:44:23.621Z,36.10
2018-05-27T11:46:51.937Z,35.80
2018-05-27T11:49:19.545Z,35.70
2018-05-27T11:51:47.051Z,35.70
2018-05-27T11:54:14.602Z,35.50
2018-05-27T11:56:42.126Z,35.00
2018-05-27T11:59:09.644Z,34.50
2018-05-27T12:01:37.195Z,34.10
2018-05-27T12:04:04.721Z,33.90
2018-05-27T12:06:33.013Z,33.60
2018-05-27T12:09:00.662Z,33.50
2018-05-27T12:11:28.262Z,33.50
2018-05-27T12:13:55.845Z,33.20
2018-05-27T12:16:23.429Z,33.00
2018-05-27T12:18:50.963Z,33.00
2018-05-27T12:21:19.300Z,32.70
2018-05-27T12:23:46.854Z,32.70
2018-05-27T12:26:14.472Z,32.50
2018-05-27T12:28:42.019Z,32.30
2018-05-27T12:31:09.565Z,32.10
2018-05-27T12:33:37.100Z,31.80
2018-05-27T12:36:05.440Z,31.40
2018-05-27T12:38:33.040Z,31.30
2018-05-27T12:41:00.701Z,30.90
2018-05-27T12:43:28.233Z,30.40
2018-05-27T12:45:55.925Z,30.00
2018-05-27T12:48:24.235Z,29.50
2018-05-27T12:50:51.751Z,29.20
2018-05-27T12:53:20.120Z,28.70
2018-05-27T12:55:47.683Z,28.60
2018-05-27T12:58:15.192Z,28.40
2018-05-27T13:00:42.801Z,28.30
2018-05-27T13:03:10.697Z,28.20
2018-05-27T13:05:38.351Z,28.10
2018-05-27T13:08:06.025Z,28.00
2018-05-27T13:10:33.599Z,28.00
2018-05-27T13:13:01.232Z,27.90
2018-05-27T13:15:30.157Z,27.90
2018-05-27T13:17:57.705Z,28.00
2018-05-27T13:20:25.976Z,28.10
2018-05-27T13:22:53.589Z,28.10
2018-05-27T13:25:21.079Z,28.20
2018-05-27T13:27:48.607Z,28.20
2018-05-27T13:30:16.868Z,28.30
2018-05-27T13:32:44.677Z,28.20
2018-05-27T13:35:12.938Z,28.10
2018-05-27T13:37:40.486Z,28.10
2018-05-27T13:40:07.986Z,28.20
2018-05-27T13:42:35.505Z,28.20
2018-05-27T13:45:03.086Z,28.10
2018-05-27T13:47:30.591Z,28.00
2018-05-27T13:49:58.114Z,28.00
2018-05-27T13:52:25.657Z,28.00
2018-05-27T13:54:54.058Z,27.90
2018-05-27T13:57:21.568Z,28.00
2018-05-27T13:59:49.109Z,27.90
2018-05-27T14:02:16.620Z,27.90
2018-05-27T14:04:44.686Z,27.80
2018-05-27T14:07:12.175Z,27.80
2018-05-27T14:09:39.705Z,27.80
2018-05-27T14:12:07.372Z,27.80
2018-05-27T14:14:34.919Z,27.70
2018-05-27T14:17:03.206Z,27.60
2018-05-27T14:19:31.465Z,27.60
2018-05-27T14:21:59.000Z,27.60
2018-05-27T14:24:26.479Z,27.70
2018-05-27T14:26:54.000Z,27.80
2018-05-27T14:29:21.517Z,27.80
2018-05-27T14:31:49.182Z,27.80
2018-05-27T14:34:16.751Z,27.80
2018-05-27T14:36:44.326Z,27.90
2018-05-27T14:39:12.007Z,27.90
2018-05-27T14:41:39.641Z,27.90
2018-05-27T14:44:08.535Z,27.80
2018-05-27T14:46:37.781Z,27.70
2018-05-27T14:49:05.271Z,27.70
2018-05-27T14:51:32.786Z,27.70
2018-05-27T14:54:00.361Z,27.70
2018-05-27T14:56:28.070Z,27.70
2018-05-27T14:58:55.628Z,27.60
2018-05-27T15:01:23.931Z,27.70
2018-05-27T15:03:51.712Z,27.60
2018-05-27T15:06:19.215Z,27.70
2018-05-27T15:08:46.885Z,27.70
2018-05-27T15:11:14.452Z,27.70
2018-05-27T15:13:42.561Z,27.70
2018-05-27T15:16:10.160Z,27.70
2018-05-27T15:18:38.552Z,27.70
2018-05-27T15:21:06.964Z,27.70
2018-05-27T15:23:34.489Z,27.70
2018-05-27T15:26:02.214Z,27.70
2018-05-27T15:28:29.926Z,27.60
2018-05-27T15:30:57.555Z,27.60
2018-05-27T15:33:25.123Z,27.60
2018-05-27T15:35:52.763Z,27.60
2018-05-27T15:38:20.391Z,27.60
2018-05-27T15:40:47.923Z,27.60
2018-05-27T15:43:16.440Z,27.50
2018-05-27T15:45:44.102Z,27.50
2018-05-27T15:48:12.497Z,27.40
2018-05-27T15:50:40.777Z,27.30
2018-05-27T15:53:09.137Z,27.30
2018-05-27T15:55:36.861Z,27.30
2018-05-27T15:58:04.465Z,27.30
2018-05-27T16:00:32.026Z,27.30
2018-05-27T16:02:59.598Z,27.40
2018-05-27T16:05:27.157Z,27.40
2018-05-27T16:07:55.456Z,27.30
2018-05-27T16:10:23.173Z,27.30
2018-05-27T16:12:50.810Z,27.30
2018-05-27T16:15:18.444Z,27.40
2018-05-27T16:17:46.702Z,27.50
2018-05-27T16:20:14.382Z,27.50
2018-05-27T16:22:41.978Z,27.50
2018-05-27T16:25:10.373Z,27.50
2018-05-27T16:27:38.044Z,27.50
2018-05-27T16:30:06.326Z,27.50
2018-05-27T16:32:33.844Z,27.50
2018-05-27T16:35:01.375Z,27.40
2018-05-27T16:37:29.641Z,27.30
2018-05-27T16:39:57.358Z,27.30
2018-05-27T16:42:24.912Z,27.30
2018-05-27T16:44:52.488Z,27.30
2018-05-27T16:47:19.987Z,27.20
2018-05-27T16:49:48.297Z,27.20
2018-05-27T16:52:15.809Z,27.20
2018-05-27T16:54:44.133Z,27.10
2018-05-27T16:57:11.667Z,27.00
2018-05-27T16:59:39.954Z,27.00
2018-05-27T17:02:08.221Z,26.90
2018-05-27T17:04:35.818Z,26.90
2018-05-27T17:07:04.084Z,26.70
2018-05-27T17:09:31.631Z,26.70
2018-05-27T17:11:59.139Z,26.60
2018-05-27T17:14:27.549Z,26.40
2018-05-27T17:16:55.038Z,26.40
2018-05-27T17:19:22.541Z,26.40
2018-05-27T17:21:50.059Z,26.30
2018-05-27T17:24:17.668Z,26.20
2018-05-27T17:26:45.273Z,26.20
2018-05-27T17:29:12.773Z,26.10
2018-05-27T17:31:40.315Z,26.00
2018-05-27T17:34:07.970Z,25.90
2018-05-27T17:36:35.588Z,25.90
2018-05-27T17:39:03.101Z,25.80
2018-05-27T17:41:30.676Z,25.70
2018-05-27T17:43:58.256Z,25.70
2018-05-27T17:46:25.933Z,25.60
2018-05-27T17:48:53.483Z,25.60
2018-05-27T17:51:20.979Z,25.50
2018-05-27T17:53:48.565Z,25.60
2018-05-27T17:56:16.159Z,25.50
2018-05-27T17:58:44.504Z,25.40
2018-05-27T18:01:12.133Z,25.40
2018-05-27T18:03:39.700Z,25.40
2018-05-27T18:06:07.361Z,25.30
2018-05-27T18:08:35.736Z,25.20
2018-05-27T18:11:04.022Z,25.10
2018-05-27T18:13:31.588Z,25.10
2018-05-27T18:15:59.852Z,25.10
2018-05-27T18:18:27.483Z,25.10
2018-05-27T18:20:54.985Z,25.00
2018-05-27T18:23:22.548Z,25.00
2018-05-27T18:25:50.120Z,25.10
2018-05-27T18:28:17.714Z,25.20
2018-05-27T18:30:45.266Z,25.30
2018-05-27T18:33:12.803Z,25.30
2018-05-27T18:35:41.104Z,25.40
2018-05-27T18:38:09.587Z,25.40
2018-05-27T18:40:37.198Z,25.40
2018-05-27T18:43:04.860Z,25.40
2018-05-27T18:45:32.445Z,25.40
2018-05-27T18:48:00.026Z,25.50
2018-05-27T18:50:27.603Z,25.50
2018-05-27T18:52:55.288Z,25.40
2018-05-27T18:55:22.905Z,25.50
2018-05-27T18:57:50.460Z,25.40
2018-05-27T19:00:19.005Z,25.30
2018-05-27T19:02:47.211Z,25.30
2018-05-27T19:05:16.366Z,25.20
2018-05-27T19:07:44.068Z,25.20
2018-05-27T19:10:11.597Z,25.20
2018-05-27T19:12:40.144Z,25.10
2018-05-27T19:15:07.727Z,25.10
2018-05-27T19:17:35.657Z,25.10
2018-05-27T19:20:03.247Z,25.00
2018-05-27T19:22:30.820Z,24.90
2018-05-27T19:24:58.391Z,24.90
2018-05-27T19:27:26.180Z,24.90
2018-05-27T19:29:53.762Z,24.90
2018-05-27T19:32:21.442Z,24.90
2018-05-27T19:34:48.949Z,24.90
2018-05-27T19:37:17.284Z,24.60
2018-05-27T19:39:44.803Z,24.60
2018-05-27T19:42:13.268Z,24.50
2018-05-27T19:44:40.765Z,24.40
2018-05-27T19:47:08.399Z,24.40
2018-05-27T19:49:35.975Z,24.40
2018-05-27T19:52:03.826Z,24.40
2018-05-27T19:54:31.363Z,24.40
2018-05-27T19:56:59.750Z,24.20
2018-05-27T19:59:27.307Z,24.20
2018-05-27T20:01:54.945Z,24.20
2018-05-27T20:04:22.489Z,24.10
2018-05-27T20:06:50.100Z,24.00
2018-05-27T20:09:17.658Z,24.00
2018-05-27T20:11:45.193Z,24.00
2018-05-27T20:14:13.495Z,24.00
2018-05-27T20:16:41.795Z,23.90
2018-05-27T20:19:09.361Z,23.90
2018-05-27T20:21:36.926Z,23.90
2018-05-27T20:24:04.490Z,23.90
2018-05-27T20:26:32.943Z,23.90
2018-05-27T20:29:00.572Z,23.80
2018-05-27T20:31:29.041Z,23.80
2018-05-27T20:33:57.551Z,23.80
2018-05-27T20:36:25.153Z,23.80
2018-05-27T20:38:52.687Z,23.80
2018-05-27T20:41:21.111Z,23.80
2018-05-27T20:43:48.653Z,23.70
2018-05-27T20:46:16.953Z,23.70
2018-05-27T20:48:44.663Z,23.70
2018-05-27T20:51:12.180Z,23.60
2018-05-27T20:53:40.650Z,23.60
2018-05-27T20:56:09.705Z,23.50
2018-05-27T20:58:37.354Z,23.60
2018-05-27T21:01:05.864Z,23.50
2018-05-27T21:03:33.361Z,23.50
2018-05-27T21:06:00.974Z,23.50
2018-05-27T21:08:28.505Z,23.60
2018-05-27T21:10:56.257Z,23.50
2018-05-27T21:13:23.791Z,23.50
2018-05-27T21:15:52.116Z,23.40
2018-05-27T21:18:19.657Z,23.40
2018-05-27T21:20:47.237Z,23.40
2018-05-27T21:23:14.782Z,23.30
2018-05-27T21:25:42.503Z,23.30
2018-05-27T21:28:10.176Z,23.30
2018-05-27T21:30:37.664Z,23.30
2018-05-27T21:33:05.328Z,23.20
2018-05-27T21:35:32.872Z,23.20
2018-05-27T21:38:01.151Z,23.20
2018-05-27T21:40:28.647Z,23.20
2018-05-27T21:42:56.308Z,23.30
2018-05-27T21:45:24.573Z,23.30
2018-05-27T21:47:53.680Z,23.30
2018-05-27T21:50:21.190Z,23.30
2018-05-27T21:52:48.718Z,23.30
2018-05-27T21:55:16.868Z,23.40
2018-05-27T21:57:44.465Z,23.40
2018-05-27T22:00:11.972Z,23.30
2018-05-27T22:02:40.330Z,23.20
2018-05-27T22:05:07.977Z,23.20
2018-05-27T22:07:35.476Z,23.10
2018-05-27T22:10:03.073Z,23.10
2018-05-27T22:12:30.627Z,23.10
2018-05-27T22:14:58.236Z,23.10
2018-05-27T22:17:26.946Z,23.10
2018-05-27T22:19:54.485Z,23.00
2018-05-27T22:22:22.775Z,22.80
2018-05-27T22:24:51.086Z,22.60
2018-05-27T22:27:18.601Z,22.60
2018-05-27T22:29:46.129Z,22.40
2018-05-27T22:32:13.664Z,22.20
2018-05-27T22:34:41.211Z,22.10
2018-05-27T22:37:08.980Z,21.90
2018-05-27T22:39:36.477Z,21.80
2018-05-27T22:42:04.065Z,21.70
2018-05-27T22:44:32.352Z,21.60
2018-05-27T22:47:00.625Z,21.50
2018-05-27T22:49:28.136Z,21.50
2018-05-27T22:51:55.662Z,21.40
2018-05-27T22:54:23.140Z,21.30
2018-05-27T22:56:50.669Z,21.30
2018-05-27T22:59:18.320Z,21.30
2018-05-27T23:01:45.861Z,21.20
2018-05-27T23:04:13.427Z,21.10
2018-05-27T23:06:41.083Z,21.10
2018-05-27T23:09:08.694Z,21.10
2018-05-27T23:11:36.987Z,20.90
2018-05-27T23:14:04.536Z,20.90
2018-05-27T23:16:32.836Z,20.80
2018-05-27T23:19:01.144Z,20.90
2018-05-27T23:21:28.631Z,20.80
2018-05-27T23:23:56.253Z,20.80
2018-05-27T23:26:23.833Z,20.80
2018-05-27T23:28:52.134Z,20.60
2018-05-27T23:31:20.120Z,20.60
2018-05-27T23:33:48.009Z,20.60
2018-05-27T23:36:15.561Z,20.60
2018-05-27T23:38:43.857Z,20.50
2018-05-27T23:41:12.124Z,20.60
2018-05-27T23:43:39.644Z,20.50
2018-05-27T23:46:07.204Z,20.50
2018-05-27T23:48:34.758Z,20.50
2018-05-27T23:51:02.276Z,20.40
2018-05-27T23:53:29.843Z,20.40
2018-05-27T23:55:57.381Z,20.40
2018-05-27T23:58:24.953Z,20.40
